Time;durP1;ratioP1;P1;durP2;ratioP2;P2;SDS_P1;SDS_P2;PMS_P1;PMS_P2;Temp;Humidity;BMP_temperature;BMP_pressure;BME280_temperature;BME280_humidity;BME280_pressure;Samples;Min_cycle;Max_cycle;Signal;HPM_P1;HPM_P2
2022/03/20 00:00:12;;;;;;;5.65;1.50;;;19.90;48.50;;;;;;4444648;32;20130;-76
2022/03/20 00:02:38;;;;;;;4.55;1.30;;;19.90;48.60;;;;;;4444538;32;20109;-76
2022/03/20 00:05:05;;;;;;;5.18;1.45;;;19.90;48.60;;;;;;4444902;32;20156;-76
2022/03/20 00:07:33;;;;;;;4.00;1.30;;;19.80;48.50;;;;;;4447241;32;20211;-76
2022/03/20 00:10:00;;;;;;;3.00;1.38;;;19.80;48.50;;;;;;4448008;32;20625;-75
2022/03/20 00:12:26;;;;;;;4.47;1.27;;;19.80;48.50;;;;;;4434313;32;20184;-76
2022/03/20 00:14:52;;;;;;;3.72;1.20;;;19.80;49.50;;;;;;4447993;32;20070;-76
2022/03/20 00:17:20;;;;;;;3.65;1.08;;;19.70;48.60;;;;;;4447974;32;20427;-76
2022/03/20 00:19:47;;;;;;;2.85;1.10;;;19.70;48.60;;;;;;4447834;32;20074;-76
2022/03/20 00:22:13;;;;;;;5.00;1.42;;;19.70;48.70;;;;;;4447820;32;20084;-76
2022/03/20 00:24:42;;;;;;;5.75;1.70;;;19.70;48.70;;;;;;4434081;32;20113;-76
2022/03/20 00:27:10;;;;;;;3.80;1.48;;;19.60;48.70;;;;;;4447985;32;20516;-76
2022/03/20 00:29:37;;;;;;;4.25;1.40;;;19.60;48.70;;;;;;4447700;32;20235;-76
2022/03/20 00:32:04;;;;;;;2.83;1.25;;;19.60;48.70;;;;;;4447680;32;20086;-76
2022/03/20 00:34:30;;;;;;;5.53;1.50;;;19.60;48.80;;;;;;4447545;32;20539;-76
2022/03/20 00:36:56;;;;;;;3.65;1.30;;;19.60;48.80;;;;;;4447876;32;20507;-76
2022/03/20 00:39:21;;;;;;;3.60;1.13;;;19.50;48.70;;;;;;4433548;32;20407;-75
2022/03/20 00:41:47;;;;;;;3.30;1.10;;;19.50;48.80;;;;;;4447762;32;20074;-76
2022/03/20 00:44:13;;;;;;;2.83;1.30;;;19.50;48.80;;;;;;4420964;32;20636;-76
2022/03/20 00:46:39;;;;;;;4.22;1.48;;;19.40;48.80;;;;;;4447667;32;20622;-76
2022/03/20 00:49:05;;;;;;;4.13;1.17;;;19.40;48.80;;;;;;4433610;32;20164;-76
2022/03/20 00:51:32;;;;;;;2.92;1.60;;;19.40;48.80;;;;;;4447485;32;20511;-76
2022/03/20 00:53:58;;;;;;;3.38;1.27;;;19.40;48.80;;;;;;4447571;32;20125;-76
2022/03/20 00:56:24;;;;;;;3.30;1.13;;;19.40;48.80;;;;;;4447566;32;20066;-76
2022/03/20 00:58:49;;;;;;;3.50;1.23;;;19.40;48.80;;;;;;4447242;32;20482;-76
2022/03/20 01:01:15;;;;;;;3.05;1.00;;;19.40;48.80;;;;;;4447527;32;20380;-76
2022/03/20 01:03:42;;;;;;;2.75;0.98;;;19.40;48.80;;;;;;4447141;32;20283;-76
2022/03/20 01:06:08;;;;;;;1.95;1.02;;;19.30;48.90;;;;;;4447206;32;20070;-76
2022/03/20 01:08:35;;;;;;;6.28;1.55;;;19.30;48.80;;;;;;4447108;32;20094;-76
2022/03/20 01:11:02;;;;;;;3.75;1.23;;;19.30;48.90;;;;;;4447027;32;20085;-76
2022/03/20 01:13:29;;;;;;;3.97;1.40;;;19.30;48.90;;;;;;4430607;32;20215;-76
2022/03/20 01:15:56;;;;;;;2.95;1.27;;;19.30;48.90;;;;;;4431962;32;20074;-76
2022/03/20 01:18:22;;;;;;;1.92;1.02;;;19.20;48.80;;;;;;4429971;32;20428;-75
2022/03/20 01:20:48;;;;;;;3.85;1.40;;;19.20;48.80;;;;;;4431799;32;20286;-76
2022/03/20 01:23:14;;;;;;;2.95;1.17;;;19.20;48.80;;;;;;4430549;32;20160;-76
2022/03/20 01:25:40;;;;;;;1.98;0.82;;;19.20;48.80;;;;;;4431494;32;20400;-76
2022/03/20 01:28:06;;;;;;;3.42;1.30;;;19.20;48.90;;;;;;4431203;32;20094;-75
2022/03/20 01:30:32;;;;;;;3.63;1.38;;;19.20;49.80;;;;;;4431568;32;20084;-76
2022/03/20 01:32:58;;;;;;;4.95;1.60;;;19.10;48.80;;;;;;4431282;32;20114;-76
2022/03/20 01:35:24;;;;;;;2.15;1.00;;;19.20;48.90;;;;;;4430576;32;20054;-76
2022/03/20 01:37:50;;;;;;;4.45;1.20;;;19.10;48.90;;;;;;4430970;32;20432;-76
2022/03/20 01:40:16;;;;;;;2.65;0.85;;;19.10;48.90;;;;;;4431298;32;20074;-76
2022/03/20 01:42:43;;;;;;;3.03;1.30;;;19.10;48.90;;;;;;4431465;32;20086;-76
2022/03/20 01:45:14;;;;;;;2.45;1.10;;;19.10;48.90;;;;;;4431176;32;20144;-76
2022/03/20 01:47:40;;;;;;;3.45;1.20;;;19.10;49.20;;;;;;4429749;32;20106;-76
2022/03/20 01:50:06;;;;;;;2.70;1.08;;;19.10;48.90;;;;;;4431140;32;20070;-76
2022/03/20 01:52:33;;;;;;;2.65;1.20;;;19.00;48.90;;;;;;4431304;32;20089;-76
2022/03/20 01:54:59;;;;;;;2.53;1.00;;;19.00;48.80;;;;;;4431240;32;20480;-76
2022/03/20 01:57:26;;;;;;;4.53;1.10;;;19.00;48.90;;;;;;4430944;32;20071;-76
2022/03/20 01:59:52;;;;;;;3.05;1.20;;;19.00;48.80;;;;;;4430723;32;20507;-76
2022/03/20 02:02:19;;;;;;;3.10;1.15;;;19.00;48.90;;;;;;4431174;32;20063;-76
2022/03/20 02:04:45;;;;;;;4.28;1.30;;;19.00;48.80;;;;;;4430026;32;20087;-76
2022/03/20 02:07:12;;;;;;;4.22;1.05;;;18.90;48.80;;;;;;4430644;32;20224;-76
2022/03/20 02:09:40;;;;;;;2.33;1.25;;;18.90;48.80;;;;;;4429612;32;20164;-76
2022/03/20 02:12:07;;;;;;;4.05;1.25;;;18.90;48.90;;;;;;4429491;32;20256;-76
2022/03/20 02:14:34;;;;;;;2.33;1.20;;;18.90;48.80;;;;;;4429519;32;20109;-76
2022/03/20 02:17:01;;;;;;;2.53;1.20;;;18.90;48.90;;;;;;4430438;32;20089;-76
2022/03/20 02:19:27;;;;;;;3.38;0.90;;;18.90;48.80;;;;;;4430876;32;20132;-76
2022/03/20 02:21:54;;;;;;;3.10;1.30;;;18.90;48.80;;;;;;4430652;32;20077;-76
2022/03/20 02:24:41;;;;;;;1.80;1.00;;;18.80;48.70;;;;;;4431138;32;20093;-76
2022/03/20 02:27:09;;;;;;;2.55;1.13;;;18.90;48.80;;;;;;4430700;32;20085;-76
2022/03/20 02:29:36;;;;;;;2.10;1.10;;;18.80;48.80;;;;;;4428564;32;20093;-76
2022/03/20 02:32:05;;;;;;;2.70;1.20;;;18.80;48.80;;;;;;4430205;32;20524;-76
2022/03/20 02:34:31;;;;;;;3.47;1.10;;;18.80;48.80;;;;;;4430391;32;20077;-76
2022/03/20 02:36:59;;;;;;;2.13;1.08;;;18.80;48.80;;;;;;4430162;32;20078;-76
2022/03/20 02:39:25;;;;;;;2.40;1.35;;;18.80;48.80;;;;;;4429427;32;20492;-76
2022/03/20 02:41:51;;;;;;;3.85;1.45;;;18.70;48.80;;;;;;4430330;32;20086;-76
2022/03/20 02:44:18;;;;;;;2.65;1.20;;;18.80;48.90;;;;;;4429402;32;20524;-76
2022/03/20 02:46:44;;;;;;;2.75;1.30;;;18.70;48.80;;;;;;4430332;32;20095;-76
2022/03/20 02:49:11;;;;;;;2.88;1.40;;;18.70;48.80;;;;;;4430052;32;20535;-76
2022/03/20 02:51:37;;;;;;;1.88;1.02;;;18.70;48.80;;;;;;4430274;32;20090;-76
2022/03/20 02:54:03;;;;;;;2.55;0.98;;;18.70;48.90;;;;;;4429171;32;20377;-76
2022/03/20 02:56:29;;;;;;;2.28;1.10;;;18.70;48.90;;;;;;4430342;32;20464;-76
2022/03/20 02:58:55;;;;;;;3.00;1.23;;;18.70;48.90;;;;;;4430094;32;20081;-76
2022/03/20 03:01:21;;;;;;;3.33;1.10;;;18.60;48.80;;;;;;4430346;32;20074;-76
2022/03/20 03:03:47;;;;;;;3.00;1.30;;;18.60;48.90;;;;;;4429989;32;20085;-76
2022/03/20 03:06:13;;;;;;;2.17;1.20;;;18.60;48.90;;;;;;4430048;32;20166;-76
2022/03/20 03:11:23;;;;;;;2.38;1.30;;;18.60;48.90;;;;;;4429827;32;20082;-76
2022/03/20 03:13:50;;;;;;;4.22;1.25;;;18.60;48.90;;;;;;4433646;32;20080;-76
2022/03/20 03:16:16;;;;;;;2.80;1.42;;;18.60;49.00;;;;;;4445240;32;20220;-76
2022/03/20 03:18:46;;;;;;;2.45;1.08;;;18.60;48.90;;;;;;4445457;32;20080;-76
2022/03/20 03:21:16;;;;;;;2.60;1.20;;;18.60;49.00;;;;;;4445491;32;20066;-76
2022/03/20 03:23:43;;;;;;;2.25;1.25;;;18.60;48.90;;;;;;4445654;32;20066;-76
2022/03/20 03:26:10;;;;;;;2.67;1.45;;;18.50;48.90;;;;;;4445237;32;20086;-76
2022/03/20 03:28:37;;;;;;;3.58;1.60;;;18.50;48.90;;;;;;4445467;32;20089;-76
2022/03/20 03:31:08;;;;;;;3.08;1.40;;;18.50;48.90;;;;;;4431018;32;20133;-76
2022/03/20 03:33:36;;;;;;;2.88;1.40;;;18.50;48.90;;;;;;4445070;32;20085;-77
2022/03/20 03:36:02;;;;;;;2.55;1.42;;;18.50;48.90;;;;;;4431439;32;20381;-76
2022/03/20 03:38:30;;;;;;;2.88;1.40;;;18.50;48.90;;;;;;4445292;32;20081;-76
2022/03/20 03:40:57;;;;;;;2.65;1.50;;;18.50;48.90;;;;;;4444548;32;20089;-76
2022/03/20 03:43:24;;;;;;;3.35;1.38;;;18.50;48.90;;;;;;4444764;32;20070;-76
2022/03/20 03:45:52;;;;;;;2.80;1.52;;;18.40;48.90;;;;;;4445268;32;20097;-76
2022/03/20 03:48:18;;;;;;;3.40;1.67;;;18.40;48.90;;;;;;4418792;32;20096;-75
2022/03/20 03:50:46;;;;;;;2.38;1.55;;;18.40;48.90;;;;;;4445084;32;20078;-76
2022/03/20 03:53:12;;;;;;;2.40;1.58;;;18.40;48.90;;;;;;4444995;32;20074;-76
2022/03/20 03:55:43;;;;;;;3.55;1.98;;;18.40;48.90;;;;;;4444866;32;20055;-76
2022/03/20 03:58:09;;;;;;;2.25;1.30;;;18.40;48.90;;;;;;4445200;32;20128;-76
2022/03/20 04:00:35;;;;;;;2.38;1.50;;;18.40;48.90;;;;;;4444981;32;20078;-76
2022/03/20 04:03:01;;;;;;;1.98;1.42;;;18.40;48.90;;;;;;4430990;32;20066;-75
2022/03/20 04:05:30;;;;;;;1.90;1.40;;;18.40;48.90;;;;;;4445100;32;20081;-76
2022/03/20 04:07:57;;;;;;;3.30;1.50;;;18.30;48.80;;;;;;4444909;32;20078;-76
2022/03/20 04:10:24;;;;;;;3.10;1.52;;;18.40;48.90;;;;;;4444833;32;20088;-76
2022/03/20 04:12:50;;;;;;;2.42;1.50;;;18.30;48.80;;;;;;4445147;32;20086;-76
2022/03/20 04:15:21;;;;;;;2.70;1.60;;;18.30;48.80;;;;;;4444483;32;20098;-76
2022/03/20 04:17:47;;;;;;;4.28;1.95;;;18.30;48.90;;;;;;4444808;32;20101;-76
2022/03/20 04:20:13;;;;;;;2.55;1.70;;;18.30;48.80;;;;;;4444772;32;20074;-76
2022/03/20 04:23:45;;;;;;;4.15;1.70;;;18.20;48.70;;;;;;4444757;32;20117;-76
2022/03/20 04:25:32;;;;;;;2.88;2.05;;;18.20;48.70;;;;;;4444580;32;20169;-76
2022/03/20 04:27:59;;;;;;;3.85;1.98;;;18.20;48.70;;;;;;4445062;32;20078;-76
2022/03/20 04:30:26;;;;;;;2.72;1.75;;;18.20;48.70;;;;;;4444746;32;20214;-76
2022/03/20 04:32:53;;;;;;;3.83;1.70;;;18.20;48.70;;;;;;4430499;32;20408;-76
2022/03/20 04:35:23;;;;;;;2.33;1.80;;;18.20;48.70;;;;;;4444408;32;20085;-76
2022/03/20 04:37:54;;;;;;;2.70;1.67;;;18.20;48.70;;;;;;4444295;32;20125;-76
2022/03/20 04:40:20;;;;;;;2.47;1.60;;;18.20;48.70;;;;;;4444490;32;20223;-76
2022/03/20 04:42:49;;;;;;;6.03;2.00;;;18.20;48.70;;;;;;4431115;32;20074;-76
2022/03/20 04:45:15;;;;;;;2.75;1.73;;;18.20;48.70;;;;;;4445063;32;20084;-76
2022/03/20 04:58:40;;;;;;;5.25;2.38;;;18.10;48.60;;;;;;4447323;32;20125;-76
2022/03/20 05:01:07;;;;;;;4.60;2.30;;;18.10;48.60;;;;;;4446880;32;20084;-75
2022/03/20 05:03:34;;;;;;;5.15;2.30;;;18.10;48.60;;;;;;4447125;32;20254;-75
2022/03/20 05:06:02;;;;;;;3.15;2.05;;;18.00;48.50;;;;;;4433457;32;20099;-75
2022/03/20 05:08:29;;;;;;;4.20;2.20;;;18.00;48.50;;;;;;4447207;32;20078;-75
2022/03/20 05:13:39;;;;;;;3.72;2.17;;;18.00;48.40;;;;;;4447221;32;20625;-76
2022/03/20 05:16:05;;;;;;;4.00;2.10;;;18.00;48.40;;;;;;4446864;32;20066;-75
2022/03/20 05:18:32;;;;;;;4.13;2.13;;;18.00;48.40;;;;;;4433022;32;20074;-76
2022/03/20 05:20:58;;;;;;;2.67;2.20;;;18.00;48.30;;;;;;4446963;32;20181;-76
2022/03/20 05:23:24;;;;;;;3.92;2.30;;;18.00;48.30;;;;;;4433112;32;20138;-76
2022/03/20 05:25:50;;;;;;;3.97;2.28;;;17.90;48.30;;;;;;4446718;32;20284;-76
2022/03/20 05:28:17;;;;;;;4.55;2.70;;;17.90;48.30;;;;;;4446842;32;20101;-76
2022/03/20 05:30:43;;;;;;;4.55;2.50;;;17.90;48.30;;;;;;4432835;32;20518;-76
2022/03/20 05:33:14;;;;;;;3.55;2.53;;;17.90;48.20;;;;;;4446637;32;20130;-76
2022/03/20 05:35:42;;;;;;;2.90;2.25;;;17.90;48.30;;;;;;4447143;32;20078;-76
2022/03/20 05:38:09;;;;;;;6.30;2.80;;;17.90;48.20;;;;;;4446916;32;20284;-76
2022/03/20 05:40:40;;;;;;;3.65;2.42;;;17.90;48.20;;;;;;4447196;32;20078;-76
2022/03/20 05:43:09;;;;;;;3.88;2.47;;;17.90;48.20;;;;;;4447075;32;20264;-76
2022/03/20 05:45:39;;;;;;;4.78;2.72;;;17.80;48.10;;;;;;4446586;32;20086;-76
2022/03/20 05:48:08;;;;;;;4.35;2.42;;;17.80;48.10;;;;;;4446809;32;20172;-76
2022/03/20 05:50:34;;;;;;;3.92;2.80;;;17.80;48.20;;;;;;4446273;32;20081;-75
2022/03/20 05:53:00;;;;;;;4.20;2.63;;;17.80;48.20;;;;;;4446423;32;20232;-76
2022/03/20 05:58:15;;;;;;;4.80;2.75;;;17.80;48.20;;;;;;4446741;32;20070;-75
2022/03/20 06:00:41;;;;;;;4.32;2.95;;;17.80;48.20;;;;;;4446711;32;20078;-75
2022/03/20 06:03:10;;;;;;;4.43;2.72;;;17.80;48.20;;;;;;4446250;32;20534;-76
2022/03/20 06:05:37;;;;;;;3.95;2.63;;;17.80;48.20;;;;;;4445879;32;20140;-76
2022/03/20 06:08:04;;;;;;;4.30;2.47;;;17.80;48.20;;;;;;4446279;32;20081;-75
2022/03/20 06:10:30;;;;;;;4.75;3.17;;;17.70;48.10;;;;;;4445929;32;20102;-76
2022/03/20 06:12:56;;;;;;;3.92;2.80;;;17.70;48.10;;;;;;4445966;32;20062;-76
2022/03/20 06:15:22;;;;;;;3.75;2.65;;;17.70;48.10;;;;;;4446225;32;20069;-76
2022/03/20 06:17:48;;;;;;;3.60;2.58;;;17.70;48.10;;;;;;4446035;32;20082;-76
2022/03/20 06:20:16;;;;;;;4.88;2.90;;;17.70;48.10;;;;;;4446447;32;20074;-76
2022/03/20 06:22:44;;;;;;;5.10;2.83;;;17.70;48.10;;;;;;4446066;32;20085;-75
2022/03/20 06:25:15;;;;;;;4.90;3.10;;;17.70;48.10;;;;;;4446044;32;20070;-75
2022/03/20 06:27:46;;;;;;;3.88;2.60;;;17.70;48.10;;;;;;4445989;32;20070;-76
2022/03/20 06:30:13;;;;;;;3.50;2.75;;;17.70;48.00;;;;;;4446273;32;20078;-77
2022/03/20 06:32:40;;;;;;;6.28;3.42;;;17.70;48.10;;;;;;4445946;32;20605;-76
2022/03/20 06:35:07;;;;;;;4.63;3.10;;;17.60;48.00;;;;;;4445820;32;20085;-76
2022/03/20 06:37:39;;;;;;;4.43;2.90;;;17.60;48.00;;;;;;4446013;32;20082;-76
2022/03/20 06:40:06;;;;;;;5.00;3.17;;;17.60;48.00;;;;;;4445573;32;20105;-76
2022/03/20 06:42:32;;;;;;;4.45;3.10;;;17.60;47.90;;;;;;4431907;32;20066;-76
2022/03/20 06:44:59;;;;;;;5.00;3.20;;;17.60;47.90;;;;;;4431865;32;20159;-76
2022/03/20 06:47:26;;;;;;;6.10;3.08;;;17.60;47.90;;;;;;4445922;32;20478;-75
2022/03/20 06:49:53;;;;;;;5.68;3.50;;;17.60;47.90;;;;;;4445698;32;20404;-76
2022/03/20 06:52:22;;;;;;;4.18;3.28;;;17.60;47.90;;;;;;4431467;32;20538;-76
2022/03/20 06:54:51;;;;;;;5.38;3.45;;;17.60;47.80;;;;;;4445612;32;20159;-76
2022/03/20 06:57:18;;;;;;;5.20;3.55;;;17.60;47.80;;;;;;4445699;32;20112;-76
2022/03/20 06:59:45;;;;;;;4.00;3.28;;;17.60;47.80;;;;;;4445514;32;20078;-76
2022/03/20 07:02:11;;;;;;;5.45;3.38;;;17.50;47.80;;;;;;4445252;32;20078;-76
2022/03/20 07:04:37;;;;;;;5.60;3.20;;;17.50;47.80;;;;;;4445578;32;20090;-76
2022/03/20 07:07:04;;;;;;;4.97;3.05;;;17.50;48.60;;;;;;4445153;32;20088;-76
2022/03/20 07:09:30;;;;;;;5.60;3.10;;;17.50;47.70;;;;;;4445644;32;20110;-76
2022/03/20 07:11:56;;;;;;;4.28;3.13;;;17.50;47.70;;;;;;4445357;32;20085;-76
2022/03/20 07:14:21;;;;;;;4.57;3.55;;;17.50;47.70;;;;;;4445329;32;20151;-75
2022/03/20 07:16:47;;;;;;;5.80;4.13;;;17.50;47.60;;;;;;4430991;32;20089;-76
2022/03/20 07:19:13;;;;;;;5.22;3.55;;;17.50;47.60;;;;;;4431314;32;20156;-76
2022/03/20 07:21:40;;;;;;;5.22;3.50;;;17.50;47.50;;;;;;4445488;32;20389;-76
2022/03/20 07:24:06;;;;;;;4.90;3.65;;;17.50;47.50;;;;;;4431175;32;20215;-76
2022/03/20 07:29:29;;;;;;;4.90;3.42;;;17.50;47.50;;;;;;4445256;32;20417;-75
2022/03/20 07:31:57;;;;;;;6.65;3.80;;;17.50;47.50;;;;;;4445462;32;20220;-75
2022/03/20 07:34:24;;;;;;;4.60;3.55;;;17.50;47.40;;;;;;4445261;32;20086;-75
2022/03/20 07:36:50;;;;;;;5.53;3.92;;;17.50;47.40;;;;;;4445095;32;20114;-75
2022/03/20 07:39:17;;;;;;;5.85;3.95;;;17.50;47.30;;;;;;4444707;32;20082;-76
2022/03/20 07:41:43;;;;;;;7.00;3.60;;;17.50;47.30;;;;;;4445216;32;20093;-75
2022/03/20 07:44:10;;;;;;;5.47;3.78;;;17.50;47.30;;;;;;4444800;32;20276;-74
2022/03/20 07:46:38;;;;;;;5.22;3.72;;;17.50;48.10;;;;;;4445002;32;20089;-75
2022/03/20 07:49:04;;;;;;;6.05;3.70;;;17.50;47.20;;;;;;4444754;32;20541;-74
2022/03/20 07:51:30;;;;;;;5.57;3.83;;;17.50;47.10;;;;;;4444985;32;20101;-75
2022/03/20 07:53:57;;;;;;;5.50;3.72;;;17.50;47.10;;;;;;4445179;32;20086;-76
2022/03/20 07:56:23;;;;;;;5.28;3.78;;;17.50;47.10;;;;;;4430933;32;20125;-74
2022/03/20 07:58:50;;;;;;;7.05;4.10;;;17.50;47.10;;;;;;4444928;32;20151;-75
2022/03/20 08:01:16;;;;;;;5.60;3.92;;;17.50;47.10;;;;;;4445154;32;20176;-75
2022/03/20 08:03:42;;;;;;;5.38;4.07;;;17.50;47.00;;;;;;4430927;32;20216;-75
2022/03/20 08:06:08;;;;;;;5.03;3.83;;;17.50;47.00;;;;;;4431075;32;20082;-76
2022/03/20 08:08:35;;;;;;;8.35;5.47;;;17.50;47.10;;;;;;4444785;32;20160;-76
2022/03/20 08:11:01;;;;;;;15.05;7.35;;;17.50;46.80;;;;;;4444833;32;20532;-75
2022/03/20 08:13:30;;;;;;;11.70;8.30;;;17.50;45.60;;;;;;4444598;32;20208;-76
2022/03/20 08:15:57;;;;;;;14.63;9.93;;;17.40;44.40;;;;;;4444794;32;20085;-77
2022/03/20 08:18:23;;;;;;;16.48;10.07;;;17.40;43.20;;;;;;4444718;32;20691;-77
2022/03/20 08:20:49;;;;;;;12.23;9.07;;;17.40;42.00;;;;;;4444791;32;20429;-75
2022/03/20 08:23:16;;;;;;;15.27;10.50;;;17.30;41.80;;;;;;4444613;32;20404;-76
2022/03/20 08:25:42;;;;;;;12.20;8.75;;;17.30;41.80;;;;;;4445085;32;20180;-75
2022/03/20 08:28:10;;;;;;;11.60;8.25;;;17.30;42.70;;;;;;4446544;32;20070;-76
2022/03/20 08:30:36;;;;;;;14.02;8.57;;;17.30;43.20;;;;;;4447699;32;20496;-76
2022/03/20 08:33:02;;;;;;;14.90;8.23;;;17.30;43.50;;;;;;4447773;32;20086;-75
2022/03/20 08:35:28;;;;;;;11.82;8.20;;;17.30;43.70;;;;;;4448001;32;20089;-75
2022/03/20 08:37:55;;;;;;;12.15;7.93;;;17.30;44.00;;;;;;4433825;32;20395;-76
2022/03/20 08:40:24;;;;;;;10.23;7.40;;;17.30;44.20;;;;;;4433587;32;20070;-75
2022/03/20 08:42:52;;;;;;;14.70;7.60;;;17.40;44.40;;;;;;4447590;32;20259;-75
2022/03/20 08:45:20;;;;;;;13.32;7.55;;;17.40;44.50;;;;;;4447310;32;20235;-74
2022/03/20 08:47:46;;;;;;;10.23;7.85;;;17.40;44.60;;;;;;4447488;32;20078;-76
2022/03/20 08:50:14;;;;;;;17.45;8.40;;;17.40;44.50;;;;;;4447467;32;20066;-75
2022/03/20 08:52:44;;;;;;;14.60;8.20;;;17.40;44.40;;;;;;4447455;32;20102;-76
2022/03/20 08:55:11;;;;;;;12.05;7.63;;;17.40;44.60;;;;;;4447512;32;20106;-75
2022/03/20 08:57:39;;;;;;;12.65;7.20;;;17.40;44.70;;;;;;4447411;32;20093;-75
2022/03/20 09:00:07;;;;;;;12.30;7.50;;;17.40;44.80;;;;;;4447667;32;20078;-73
2022/03/20 09:02:33;;;;;;;10.35;6.90;;;17.40;45.20;;;;;;4447367;32;20595;-74
2022/03/20 09:04:59;;;;;;;10.55;6.88;;;17.40;45.20;;;;;;4447212;32;20629;-74
2022/03/20 09:07:25;;;;;;;12.90;6.90;;;17.50;45.10;;;;;;4447306;32;20211;-75
2022/03/20 09:09:51;;;;;;;11.15;6.82;;;17.60;45.10;;;;;;4447020;32;20090;-75
2022/03/20 09:12:17;;;;;;;10.82;6.43;;;17.60;45.00;;;;;;4446937;32;20179;-75
2022/03/20 09:14:43;;;;;;;10.10;6.57;;;17.70;44.90;;;;;;4446872;32;20156;-75
2022/03/20 09:19:55;;;;;;;10.25;6.65;;;18.00;44.50;;;;;;4447095;32;20070;-74
2022/03/20 09:22:21;;;;;;;9.85;6.43;;;18.20;44.20;;;;;;4446788;32;20097;-73
2022/03/20 09:24:47;;;;;;;9.02;6.47;;;18.30;44.00;;;;;;4446944;32;20144;-75
2022/03/20 09:27:13;;;;;;;9.30;6.15;;;18.40;43.90;;;;;;4446622;32;20070;-74
2022/03/20 09:29:38;;;;;;;7.10;5.85;;;18.50;43.80;;;;;;4446605;32;20200;-74
2022/03/20 09:32:05;;;;;;;10.07;6.20;;;18.70;43.60;;;;;;4446581;32;20160;-75
2022/03/20 09:34:32;;;;;;;10.77;7.30;;;18.80;43.20;;;;;;4446697;32;20129;-74
2022/03/20 09:36:58;;;;;;;10.90;7.32;;;18.90;42.80;;;;;;4446841;32;20078;-74
2022/03/20 09:39:26;;;;;;;8.73;6.47;;;19.00;42.20;;;;;;4446478;32;20519;-75
2022/03/20 09:41:55;;;;;;;10.57;6.82;;;19.20;41.90;;;;;;4446705;32;20167;-74
2022/03/20 09:44:25;;;;;;;12.18;6.68;;;19.30;41.60;;;;;;4447009;32;20240;-76
2022/03/20 09:46:51;;;;;;;11.77;6.55;;;19.40;41.40;;;;;;4446705;32;20586;-75
2022/03/20 09:49:20;;;;;;;10.77;7.00;;;19.40;41.20;;;;;;4446396;32;20641;-76
2022/03/20 09:51:46;;;;;;;12.95;6.70;;;19.60;41.40;;;;;;4446695;32;20508;-76
2022/03/20 09:54:14;;;;;;;11.50;7.22;;;19.60;41.30;;;;;;4446405;32;20092;-71
2022/03/20 09:56:43;;;;;;;12.43;7.38;;;19.70;41.50;;;;;;4446031;32;20109;-75
2022/03/20 09:59:10;;;;;;;20.65;7.97;;;19.70;41.60;;;;;;4446668;32;20074;-73
2022/03/20 10:01:36;;;;;;;20.40;7.88;;;19.80;41.40;;;;;;4445919;32;20533;-75
2022/03/20 10:04:07;;;;;;;12.32;7.40;;;19.80;40.80;;;;;;4446141;32;20082;-75
2022/03/20 10:06:39;;;;;;;14.77;7.93;;;19.90;40.50;;;;;;4446220;32;20089;-75
2022/03/20 10:09:13;;;;;;;16.25;8.00;;;19.90;40.20;;;;;;4446119;32;20082;-68
2022/03/20 10:11:40;;;;;;;;;;;20.00;40.30;;;;;;4447176;32;20400;-65
2022/03/20 10:14:16;;;;;;;9.70;7.13;;;20.20;40.60;;;;;;4446145;32;19966;-74
2022/03/20 10:16:50;;;;;;;14.55;7.30;;;20.30;40.70;;;;;;4445881;32;20117;-70
2022/03/20 10:19:22;;;;;;;;;;;20.40;40.80;;;;;;4447071;32;20086;-75
2022/03/20 10:21:54;;;;;;;13.80;7.75;;;20.50;40.80;;;;;;4445976;32;19978;-73
2022/03/20 10:24:25;;;;;;;15.38;6.88;;;20.60;40.70;;;;;;4446492;32;20535;-72
2022/03/20 10:27:00;;;;;;;14.30;6.53;;;20.70;40.80;;;;;;4446006;32;20211;-75
2022/03/20 10:29:27;;;;;;;11.38;6.63;;;20.80;41.00;;;;;;4446171;32;20168;-75
2022/03/20 10:31:55;;;;;;;15.77;7.32;;;20.90;41.20;;;;;;4445725;32;20105;-74
2022/03/20 10:34:25;;;;;;;10.43;6.22;;;21.00;41.40;;;;;;4445710;32;20498;-71
2022/03/20 10:36:52;;;;;;;14.30;6.20;;;21.10;41.60;;;;;;4445531;32;20137;-76
2022/03/20 10:39:21;;;;;;;15.77;6.70;;;21.10;41.90;;;;;;4445739;32;20432;-75
2022/03/20 10:41:51;;;;;;;12.57;6.13;;;21.20;42.10;;;;;;4445650;32;20074;-76
2022/03/20 10:44:20;;;;;;;10.50;6.38;;;21.20;42.20;;;;;;4446203;32;20213;-76
2022/03/20 10:46:56;;;;;;;11.55;6.50;;;21.30;42.30;;;;;;4445532;32;20093;-70
2022/03/20 10:49:22;;;;;;;13.70;6.90;;;21.30;42.30;;;;;;4445230;32;20600;-75
2022/03/20 10:52:05;;;;;;;11.30;6.50;;;21.30;42.30;;;;;;4444582;32;20086;-75
2022/03/20 10:54:44;;;;;;;14.20;6.65;;;21.30;42.40;;;;;;4445459;32;20089;-72
2022/03/20 10:57:12;;;;;;;9.02;7.03;;;21.20;42.50;;;;;;4445599;32;20118;-72
2022/03/20 10:59:39;;;;;;;11.27;6.60;;;21.20;42.80;;;;;;4445855;32;20507;-73
2022/03/20 11:02:05;;;;;;;13.35;6.88;;;21.10;42.90;;;;;;4445453;32;20379;-72
2022/03/20 11:04:32;;;;;;;13.07;6.75;;;21.10;43.10;;;;;;4445461;32;20487;-72
2022/03/20 11:07:00;;;;;;;14.73;6.70;;;21.00;43.40;;;;;;4445323;32;20088;-73
2022/03/20 11:09:27;;;;;;;14.07;6.68;;;21.00;43.70;;;;;;4445253;32;20078;-74
2022/03/20 11:11:56;;;;;;;11.35;6.50;;;21.00;44.00;;;;;;4445895;32;20129;-75
2022/03/20 11:14:27;;;;;;;14.48;6.90;;;20.90;44.10;;;;;;4444754;32;20172;-73
2022/03/20 11:17:04;;;;;;;9.15;6.40;;;20.80;44.20;;;;;;4445238;32;20151;-72
2022/03/20 11:19:32;;;;;;;17.42;6.65;;;20.90;44.40;;;;;;4431008;32;20257;-71
2022/03/20 11:22:05;;;;;;;11.25;7.15;;;20.80;44.50;;;;;;4445104;32;20211;-71
2022/03/20 11:24:32;;;;;;;10.88;6.72;;;20.70;44.60;;;;;;4445341;32;20114;-72
2022/03/20 11:27:01;;;;;;;17.48;7.40;;;20.70;44.70;;;;;;4444990;32;20132;-75
2022/03/20 11:29:36;;;;;;;11.32;7.10;;;20.60;44.80;;;;;;4444809;32;20070;-73
2022/03/20 11:32:03;;;;;;;11.80;7.18;;;20.60;44.80;;;;;;4445159;32;20160;-72
2022/03/20 11:34:30;;;;;;;11.93;7.30;;;20.50;44.90;;;;;;4444789;32;20142;-71
2022/03/20 11:37:05;;;;;;;11.80;7.40;;;20.50;45.00;;;;;;4444645;32;20109;-71
2022/03/20 11:39:31;;;;;;;19.45;7.60;;;20.50;45.10;;;;;;4444831;32;20098;-69
2022/03/20 11:42:28;;;;;;;17.30;7.28;;;20.50;45.10;;;;;;4444982;32;20090;-74
2022/03/20 11:45:01;;;;;;;21.02;8.77;;;20.50;45.20;;;;;;4445241;32;20103;-77
2022/03/20 11:47:29;;;;;;;16.42;8.85;;;20.40;45.30;;;;;;4445311;32;20155;-77
2022/03/20 11:50:09;;;;;;;20.17;8.02;;;20.50;45.20;;;;;;4445300;32;20101;-77
2022/03/20 11:53:04;;;;;;;20.30;8.63;;;20.50;45.10;;;;;;4444850;32;20090;-78
2022/03/20 11:55:35;;;;;;;15.85;8.30;;;20.40;45.30;;;;;;4445540;32;20247;-79
2022/03/20 11:58:11;;;;;;;16.52;7.55;;;20.40;45.50;;;;;;4444779;32;20559;-79
2022/03/20 12:00:40;;;;;;;13.32;7.88;;;20.50;45.70;;;;;;4445185;32;20078;-79
2022/03/20 12:03:14;;;;;;;15.40;8.27;;;20.50;45.90;;;;;;4446706;32;20074;-79
2022/03/20 12:05:42;;;;;;;;;;;20.50;46.20;;;;;;4448345;32;20085;-82
2022/03/20 12:08:08;;;;;;;17.10;7.88;;;20.50;46.20;;;;;;4447921;32;20392;-80
2022/03/20 12:11:01;;;;;;;15.70;8.10;;;20.50;46.30;;;;;;4447757;32;20121;-76
2022/03/20 12:13:36;;;;;;;15.27;7.90;;;20.50;46.40;;;;;;4447877;32;20482;-78
2022/03/20 12:16:03;;;;;;;14.80;7.90;;;20.50;46.60;;;;;;4447653;32;20136;-78
2022/03/20 12:19:07;;;;;;;15.57;7.50;;;20.50;46.80;;;;;;4447531;32;20082;-78
2022/03/20 12:21:56;;;;;;;14.63;8.30;;;20.50;46.90;;;;;;4447681;32;20503;-80
2022/03/20 12:24:40;;;;;;;16.88;8.30;;;20.50;46.90;;;;;;4447681;32;20515;-80
2022/03/20 12:27:22;;;;;;;13.77;7.55;;;20.50;47.10;;;;;;4447752;32;20507;-80
2022/03/20 12:29:51;;;;;;;15.77;7.68;;;20.50;47.20;;;;;;4447633;32;20137;-78
2022/03/20 12:32:47;;;;;;;23.63;7.90;;;20.50;47.40;;;;;;4447804;32;20109;-77
2022/03/20 12:35:23;;;;;;;14.20;7.75;;;20.50;47.50;;;;;;4447352;32;20070;-78
2022/03/20 12:37:50;;;;;;;11.18;7.60;;;20.40;47.60;;;;;;4447818;32;20070;-78
2022/03/20 12:40:20;;;;;;;14.20;6.75;;;20.40;47.80;;;;;;4447649;32;20133;-77
2022/03/20 12:43:10;;;;;;;14.98;7.88;;;20.40;48.00;;;;;;4447176;32;20092;-79
2022/03/20 12:45:40;;;;;;;14.98;7.45;;;20.30;48.10;;;;;;4447541;32;20078;-78
2022/03/20 12:48:10;;;;;;;14.73;7.80;;;20.30;48.30;;;;;;4447253;32;20097;-72
2022/03/20 12:50:38;;;;;;;11.20;7.63;;;20.30;48.50;;;;;;4447464;32;20083;-75
2022/03/20 12:53:12;;;;;;;14.27;8.52;;;20.20;48.50;;;;;;4447443;32;20240;-78
2022/03/20 12:55:38;;;;;;;19.20;7.88;;;20.10;48.10;;;;;;4447655;32;20074;-78
2022/03/20 12:58:06;;;;;;;16.10;8.07;;;20.10;48.10;;;;;;4447252;32;20224;-77
2022/03/20 13:00:35;;;;;;;14.70;7.90;;;20.00;48.00;;;;;;4447417;32;20102;-75
2022/03/20 13:03:09;;;;;;;15.82;7.85;;;20.00;49.00;;;;;;4447118;32;20124;-77
2022/03/20 13:05:45;;;;;;;14.70;7.65;;;19.90;48.10;;;;;;4447294;32;20076;-76
2022/03/20 13:08:22;;;;;;;12.98;7.85;;;19.90;48.80;;;;;;4433529;32;20172;-73
2022/03/20 13:10:50;;;;;;;10.75;7.90;;;19.90;49.00;;;;;;4447039;32;20133;-66
2022/03/20 13:13:20;;;;;;;11.93;7.95;;;19.90;48.90;;;;;;4446545;32;20093;-77